sensor_id;sensor_type;location;lat;lon;timestamp;P1;durP1;ratioP1;P2;durP2;ratioP2
8952;SDS011;4511;50.890;8.054;2022-09-25T00:01:44;24.13;;;20.10;;
8952;SDS011;4511;50.890;8.054;2022-09-25T00:04:10;28.13;;;22.53;;
8952;SDS011;4511;50.890;8.054;2022-09-25T00:06:37;24.07;;;21.47;;
8952;SDS011;4511;50.890;8.054;2022-09-25T00:09:05;26.50;;;21.90;;
8952;SDS011;4511;50.890;8.054;2022-09-25T00:11:33;29.73;;;23.37;;
8952;SDS011;4511;50.890;8.054;2022-09-25T00:14:01;25.03;;;22.33;;
8952;SDS011;4511;50.890;8.054;2022-09-25T00:16:28;23.27;;;20.83;;
8952;SDS011;4511;50.890;8.054;2022-09-25T00:18:56;23.53;;;20.30;;
8952;SDS011;4511;50.890;8.054;2022-09-25T00:21:41;22.20;;;19.73;;
8952;SDS011;4511;50.890;8.054;2022-09-25T00:24:09;23.63;;;20.57;;
8952;SDS011;4511;50.890;8.054;2022-09-25T00:26:38;22.53;;;20.07;;
8952;SDS011;4511;50.890;8.054;2022-09-25T00:29:07;23.87;;;20.90;;
8952;SDS011;4511;50.890;8.054;2022-09-25T00:31:35;23.53;;;20.70;;
8952;SDS011;4511;50.890;8.054;2022-09-25T00:34:03;22.90;;;20.43;;
8952;SDS011;4511;50.890;8.054;2022-09-25T00:36:31;22.57;;;19.77;;
8952;SDS011;4511;50.890;8.054;2022-09-25T00:38:58;21.23;;;18.97;;
8952;SDS011;4511;50.890;8.054;2022-09-25T00:41:26;19.50;;;17.40;;
8952;SDS011;4511;50.890;8.054;2022-09-25T00:43:56;63.00;;;21.87;;
8952;SDS011;4511;50.890;8.054;2022-09-25T00:46:26;32.37;;;22.20;;
8952;SDS011;4511;50.890;8.054;2022-09-25T00:48:56;32.03;;;21.30;;
8952;SDS011;4511;50.890;8.054;2022-09-25T00:51:27;25.47;;;20.17;;
8952;SDS011;4511;50.890;8.054;2022-09-25T00:53:58;24.17;;;20.40;;
8952;SDS011;4511;50.890;8.054;2022-09-25T00:56:27;28.67;;;22.33;;
8952;SDS011;4511;50.890;8.054;2022-09-25T00:58:59;29.23;;;23.10;;
8952;SDS011;4511;50.890;8.054;2022-09-25T01:01:28;26.10;;;21.00;;
8952;SDS011;4511;50.890;8.054;2022-09-25T01:03:55;22.10;;;19.63;;
8952;SDS011;4511;50.890;8.054;2022-09-25T01:06:21;28.50;;;22.50;;
8952;SDS011;4511;50.890;8.054;2022-09-25T01:08:51;27.87;;;22.40;;
8952;SDS011;4511;50.890;8.054;2022-09-25T01:11:18;29.70;;;23.57;;
8952;SDS011;4511;50.890;8.054;2022-09-25T01:13:44;24.33;;;21.30;;
8952;SDS011;4511;50.890;8.054;2022-09-25T01:16:12;23.27;;;20.57;;
8952;SDS011;4511;50.890;8.054;2022-09-25T01:18:52;25.57;;;21.23;;
8952;SDS011;4511;50.890;8.054;2022-09-25T01:21:28;26.23;;;21.50;;
8952;SDS011;4511;50.890;8.054;2022-09-25T01:24:23;27.00;;;21.93;;
8952;SDS011;4511;50.890;8.054;2022-09-25T01:29:58;23.13;;;20.70;;
8952;SDS011;4511;50.890;8.054;2022-09-25T01:32:31;21.90;;;19.70;;
8952;SDS011;4511;50.890;8.054;2022-09-25T01:35:03;20.17;;;18.07;;
8952;SDS011;4511;50.890;8.054;2022-09-25T01:37:35;29.17;;;23.07;;
8952;SDS011;4511;50.890;8.054;2022-09-25T01:40:08;23.37;;;20.47;;
8952;SDS011;4511;50.890;8.054;2022-09-25T01:42:41;23.63;;;21.00;;
8952;SDS011;4511;50.890;8.054;2022-09-25T01:45:11;23.50;;;21.03;;
8952;SDS011;4511;50.890;8.054;2022-09-25T01:47:42;25.83;;;21.20;;
8952;SDS011;4511;50.890;8.054;2022-09-25T01:50:13;29.03;;;23.43;;
8952;SDS011;4511;50.890;8.054;2022-09-25T01:52:45;25.43;;;21.63;;
8952;SDS011;4511;50.890;8.054;2022-09-25T01:55:15;29.47;;;23.13;;
8952;SDS011;4511;50.890;8.054;2022-09-25T01:57:47;24.03;;;21.43;;
8952;SDS011;4511;50.890;8.054;2022-09-25T02:00:20;25.77;;;21.97;;
8952;SDS011;4511;50.890;8.054;2022-09-25T02:02:50;24.67;;;20.20;;
8952;SDS011;4511;50.890;8.054;2022-09-25T02:05:21;23.43;;;20.30;;
8952;SDS011;4511;50.890;8.054;2022-09-25T02:07:52;23.07;;;20.60;;
8952;SDS011;4511;50.890;8.054;2022-09-25T02:10:24;22.17;;;19.43;;
8952;SDS011;4511;50.890;8.054;2022-09-25T02:12:57;27.07;;;21.40;;
8952;SDS011;4511;50.890;8.054;2022-09-25T02:15:31;24.40;;;19.83;;
8952;SDS011;4511;50.890;8.054;2022-09-25T02:18:00;27.23;;;20.10;;
8952;SDS011;4511;50.890;8.054;2022-09-25T02:20:47;25.33;;;19.17;;
8952;SDS011;4511;50.890;8.054;2022-09-25T02:23:18;25.00;;;19.63;;
8952;SDS011;4511;50.890;8.054;2022-09-25T02:25:48;103.20;;;24.00;;
8952;SDS011;4511;50.890;8.054;2022-09-25T02:28:20;32.67;;;21.67;;
8952;SDS011;4511;50.890;8.054;2022-09-25T02:30:49;21.83;;;18.80;;
8952;SDS011;4511;50.890;8.054;2022-09-25T02:33:18;24.97;;;18.97;;
8952;SDS011;4511;50.890;8.054;2022-09-25T02:35:45;23.93;;;18.40;;
8952;SDS011;4511;50.890;8.054;2022-09-25T02:38:12;22.17;;;18.07;;
8952;SDS011;4511;50.890;8.054;2022-09-25T02:40:42;27.13;;;23.03;;
8952;SDS011;4511;50.890;8.054;2022-09-25T02:43:15;28.33;;;24.07;;
8952;SDS011;4511;50.890;8.054;2022-09-25T02:45:54;30.60;;;25.00;;
8952;SDS011;4511;50.890;8.054;2022-09-25T02:48:31;32.23;;;25.93;;
8952;SDS011;4511;50.890;8.054;2022-09-25T02:51:09;29.20;;;24.73;;
8952;SDS011;4511;50.890;8.054;2022-09-25T02:53:43;31.70;;;25.93;;
8952;SDS011;4511;50.890;8.054;2022-09-25T02:56:14;30.83;;;24.97;;
8952;SDS011;4511;50.890;8.054;2022-09-25T02:58:46;29.77;;;24.43;;
8952;SDS011;4511;50.890;8.054;2022-09-25T03:01:17;33.60;;;26.37;;
8952;SDS011;4511;50.890;8.054;2022-09-25T03:03:48;37.17;;;27.20;;
8952;SDS011;4511;50.890;8.054;2022-09-25T03:06:18;31.33;;;25.00;;
8952;SDS011;4511;50.890;8.054;2022-09-25T03:08:47;33.30;;;25.17;;
8952;SDS011;4511;50.890;8.054;2022-09-25T03:11:17;31.27;;;25.03;;
8952;SDS011;4511;50.890;8.054;2022-09-25T03:13:49;32.20;;;25.83;;
8952;SDS011;4511;50.890;8.054;2022-09-25T03:16:23;33.70;;;25.73;;
8952;SDS011;4511;50.890;8.054;2022-09-25T03:18:58;30.90;;;23.93;;
8952;SDS011;4511;50.890;8.054;2022-09-25T03:21:25;29.03;;;22.70;;
8952;SDS011;4511;50.890;8.054;2022-09-25T03:23:52;29.60;;;23.93;;
8952;SDS011;4511;50.890;8.054;2022-09-25T03:26:21;28.90;;;23.33;;
8952;SDS011;4511;50.890;8.054;2022-09-25T03:28:47;30.33;;;24.40;;
8952;SDS011;4511;50.890;8.054;2022-09-25T03:31:14;28.67;;;22.80;;
8952;SDS011;4511;50.890;8.054;2022-09-25T03:33:43;27.30;;;23.23;;
8952;SDS011;4511;50.890;8.054;2022-09-25T03:36:11;26.37;;;21.63;;
8952;SDS011;4511;50.890;8.054;2022-09-25T03:38:40;24.60;;;20.57;;
8952;SDS011;4511;50.890;8.054;2022-09-25T03:41:08;28.63;;;21.77;;
8952;SDS011;4511;50.890;8.054;2022-09-25T03:43:36;27.50;;;20.77;;
8952;SDS011;4511;50.890;8.054;2022-09-25T03:46:04;26.80;;;21.67;;
8952;SDS011;4511;50.890;8.054;2022-09-25T03:48:32;26.73;;;21.27;;
8952;SDS011;4511;50.890;8.054;2022-09-25T03:51:00;26.47;;;21.50;;
8952;SDS011;4511;50.890;8.054;2022-09-25T03:53:27;26.77;;;20.83;;
8952;SDS011;4511;50.890;8.054;2022-09-25T03:55:55;23.73;;;19.00;;
8952;SDS011;4511;50.890;8.054;2022-09-25T03:58:22;22.57;;;18.43;;
8952;SDS011;4511;50.890;8.054;2022-09-25T04:00:49;23.33;;;19.13;;
8952;SDS011;4511;50.890;8.054;2022-09-25T04:03:16;20.37;;;17.50;;
8952;SDS011;4511;50.890;8.054;2022-09-25T04:05:46;24.67;;;19.17;;
8952;SDS011;4511;50.890;8.054;2022-09-25T04:08:14;20.07;;;17.87;;
8952;SDS011;4511;50.890;8.054;2022-09-25T04:10:41;21.53;;;17.20;;
8952;SDS011;4511;50.890;8.054;2022-09-25T04:13:08;20.57;;;17.17;;
8952;SDS011;4511;50.890;8.054;2022-09-25T04:15:37;23.93;;;17.70;;
8952;SDS011;4511;50.890;8.054;2022-09-25T04:18:04;20.50;;;17.27;;
8952;SDS011;4511;50.890;8.054;2022-09-25T04:20:31;19.37;;;17.27;;
8952;SDS011;4511;50.890;8.054;2022-09-25T04:22:58;23.17;;;18.43;;
8952;SDS011;4511;50.890;8.054;2022-09-25T04:25:26;22.10;;;18.03;;
8952;SDS011;4511;50.890;8.054;2022-09-25T04:27:53;26.80;;;20.17;;
8952;SDS011;4511;50.890;8.054;2022-09-25T04:30:21;19.17;;;17.03;;
8952;SDS011;4511;50.890;8.054;2022-09-25T04:32:48;22.37;;;17.90;;
8952;SDS011;4511;50.890;8.054;2022-09-25T04:35:32;19.23;;;16.40;;
8952;SDS011;4511;50.890;8.054;2022-09-25T04:37:59;20.23;;;16.43;;
8952;SDS011;4511;50.890;8.054;2022-09-25T04:40:27;18.93;;;15.97;;
8952;SDS011;4511;50.890;8.054;2022-09-25T04:42:56;20.43;;;15.67;;
8952;SDS011;4511;50.890;8.054;2022-09-25T04:45:24;17.27;;;15.07;;
8952;SDS011;4511;50.890;8.054;2022-09-25T04:47:51;21.53;;;16.60;;
8952;SDS011;4511;50.890;8.054;2022-09-25T04:50:19;16.20;;;13.77;;
8952;SDS011;4511;50.890;8.054;2022-09-25T04:52:45;19.80;;;15.27;;
8952;SDS011;4511;50.890;8.054;2022-09-25T04:55:13;18.13;;;15.17;;
8952;SDS011;4511;50.890;8.054;2022-09-25T04:57:42;17.27;;;14.53;;
8952;SDS011;4511;50.890;8.054;2022-09-25T05:00:09;16.70;;;13.80;;
8952;SDS011;4511;50.890;8.054;2022-09-25T05:02:43;16.93;;;13.50;;
8952;SDS011;4511;50.890;8.054;2022-09-25T05:05:10;16.60;;;14.17;;
8952;SDS011;4511;50.890;8.054;2022-09-25T05:07:36;16.37;;;13.03;;
8952;SDS011;4511;50.890;8.054;2022-09-25T05:10:04;15.70;;;13.30;;
8952;SDS011;4511;50.890;8.054;2022-09-25T05:12:32;13.67;;;12.23;;
8952;SDS011;4511;50.890;8.054;2022-09-25T05:15:01;13.63;;;11.60;;
8952;SDS011;4511;50.890;8.054;2022-09-25T05:17:28;14.87;;;12.83;;
8952;SDS011;4511;50.890;8.054;2022-09-25T05:19:54;14.60;;;12.47;;
8952;SDS011;4511;50.890;8.054;2022-09-25T05:22:21;13.87;;;11.73;;
8952;SDS011;4511;50.890;8.054;2022-09-25T05:24:48;14.37;;;12.17;;
8952;SDS011;4511;50.890;8.054;2022-09-25T05:27:16;14.57;;;12.77;;
8952;SDS011;4511;50.890;8.054;2022-09-25T05:29:43;14.97;;;12.57;;
8952;SDS011;4511;50.890;8.054;2022-09-25T05:32:11;14.63;;;11.87;;
8952;SDS011;4511;50.890;8.054;2022-09-25T05:34:37;16.60;;;12.50;;
8952;SDS011;4511;50.890;8.054;2022-09-25T05:37:04;16.20;;;13.13;;
8952;SDS011;4511;50.890;8.054;2022-09-25T05:39:31;16.17;;;12.97;;
8952;SDS011;4511;50.890;8.054;2022-09-25T05:41:57;18.03;;;13.90;;
8952;SDS011;4511;50.890;8.054;2022-09-25T05:44:26;17.33;;;14.03;;
8952;SDS011;4511;50.890;8.054;2022-09-25T05:46:53;18.37;;;14.43;;
8952;SDS011;4511;50.890;8.054;2022-09-25T05:49:22;19.03;;;14.57;;
8952;SDS011;4511;50.890;8.054;2022-09-25T05:51:49;22.13;;;15.37;;
8952;SDS011;4511;50.890;8.054;2022-09-25T05:54:16;21.63;;;14.73;;
8952;SDS011;4511;50.890;8.054;2022-09-25T05:56:42;19.10;;;13.93;;
8952;SDS011;4511;50.890;8.054;2022-09-25T05:59:09;18.27;;;14.20;;
8952;SDS011;4511;50.890;8.054;2022-09-25T06:01:36;18.43;;;14.57;;
8952;SDS011;4511;50.890;8.054;2022-09-25T06:04:02;19.60;;;15.00;;
8952;SDS011;4511;50.890;8.054;2022-09-25T06:06:30;23.87;;;15.97;;
8952;SDS011;4511;50.890;8.054;2022-09-25T06:08:57;22.33;;;15.27;;
8952;SDS011;4511;50.890;8.054;2022-09-25T06:11:24;20.63;;;14.80;;
8952;SDS011;4511;50.890;8.054;2022-09-25T06:13:51;20.30;;;14.43;;
8952;SDS011;4511;50.890;8.054;2022-09-25T06:16:19;22.20;;;16.10;;
8952;SDS011;4511;50.890;8.054;2022-09-25T06:18:46;24.23;;;15.47;;
8952;SDS011;4511;50.890;8.054;2022-09-25T06:21:15;20.80;;;14.30;;
8952;SDS011;4511;50.890;8.054;2022-09-25T06:23:43;19.70;;;15.03;;
8952;SDS011;4511;50.890;8.054;2022-09-25T06:26:10;17.77;;;15.17;;
8952;SDS011;4511;50.890;8.054;2022-09-25T06:28:38;17.87;;;14.70;;
8952;SDS011;4511;50.890;8.054;2022-09-25T06:31:04;19.73;;;15.40;;
8952;SDS011;4511;50.890;8.054;2022-09-25T06:33:31;19.30;;;14.83;;
8952;SDS011;4511;50.890;8.054;2022-09-25T06:35:58;23.47;;;15.90;;
8952;SDS011;4511;50.890;8.054;2022-09-25T06:38:25;17.47;;;14.57;;
8952;SDS011;4511;50.890;8.054;2022-09-25T06:40:53;21.13;;;15.57;;
8952;SDS011;4511;50.890;8.054;2022-09-25T06:43:20;18.80;;;14.83;;
8952;SDS011;4511;50.890;8.054;2022-09-25T06:45:47;17.63;;;14.57;;
8952;SDS011;4511;50.890;8.054;2022-09-25T06:48:14;17.67;;;14.47;;
8952;SDS011;4511;50.890;8.054;2022-09-25T06:50:41;16.87;;;14.40;;
8952;SDS011;4511;50.890;8.054;2022-09-25T06:53:10;22.50;;;15.17;;
8952;SDS011;4511;50.890;8.054;2022-09-25T06:55:38;19.40;;;14.73;;
8952;SDS011;4511;50.890;8.054;2022-09-25T06:58:10;19.10;;;14.57;;
8952;SDS011;4511;50.890;8.054;2022-09-25T07:00:38;21.00;;;14.77;;
8952;SDS011;4511;50.890;8.054;2022-09-25T07:03:05;19.43;;;14.40;;
8952;SDS011;4511;50.890;8.054;2022-09-25T07:05:50;15.97;;;13.40;;
8952;SDS011;4511;50.890;8.054;2022-09-25T07:08:17;18.13;;;13.37;;
8952;SDS011;4511;50.890;8.054;2022-09-25T07:10:48;16.13;;;13.10;;
8952;SDS011;4511;50.890;8.054;2022-09-25T07:13:17;18.90;;;13.90;;
8952;SDS011;4511;50.890;8.054;2022-09-25T07:15:51;15.37;;;13.20;;
8952;SDS011;4511;50.890;8.054;2022-09-25T07:18:18;17.03;;;13.07;;
8952;SDS011;4511;50.890;8.054;2022-09-25T07:20:45;18.20;;;13.97;;
8952;SDS011;4511;50.890;8.054;2022-09-25T07:23:11;16.73;;;12.33;;
8952;SDS011;4511;50.890;8.054;2022-09-25T07:25:38;15.53;;;13.30;;
8952;SDS011;4511;50.890;8.054;2022-09-25T07:28:05;14.73;;;11.87;;
8952;SDS011;4511;50.890;8.054;2022-09-25T07:30:34;14.20;;;12.00;;
8952;SDS011;4511;50.890;8.054;2022-09-25T07:33:01;13.43;;;11.53;;
8952;SDS011;4511;50.890;8.054;2022-09-25T07:35:28;13.00;;;11.50;;
8952;SDS011;4511;50.890;8.054;2022-09-25T07:37:54;18.03;;;13.13;;
8952;SDS011;4511;50.890;8.054;2022-09-25T07:40:22;13.83;;;11.17;;
8952;SDS011;4511;50.890;8.054;2022-09-25T07:42:50;12.67;;;9.97;;
8952;SDS011;4511;50.890;8.054;2022-09-25T07:45:17;15.40;;;9.17;;
8952;SDS011;4511;50.890;8.054;2022-09-25T07:47:45;13.87;;;9.70;;
8952;SDS011;4511;50.890;8.054;2022-09-25T07:50:13;12.30;;;8.80;;
8952;SDS011;4511;50.890;8.054;2022-09-25T07:52:39;14.17;;;9.37;;
8952;SDS011;4511;50.890;8.054;2022-09-25T07:55:06;15.37;;;9.60;;
8952;SDS011;4511;50.890;8.054;2022-09-25T07:57:34;11.23;;;9.20;;
8952;SDS011;4511;50.890;8.054;2022-09-25T08:00:00;11.00;;;9.60;;
8952;SDS011;4511;50.890;8.054;2022-09-25T08:02:28;11.10;;;9.40;;
8952;SDS011;4511;50.890;8.054;2022-09-25T08:04:56;13.47;;;9.73;;
8952;SDS011;4511;50.890;8.054;2022-09-25T08:07:23;13.83;;;9.50;;
8952;SDS011;4511;50.890;8.054;2022-09-25T08:09:50;10.47;;;8.57;;
8952;SDS011;4511;50.890;8.054;2022-09-25T08:12:17;11.47;;;9.60;;
8952;SDS011;4511;50.890;8.054;2022-09-25T08:14:43;13.43;;;9.43;;
8952;SDS011;4511;50.890;8.054;2022-09-25T08:17:10;12.33;;;8.30;;
8952;SDS011;4511;50.890;8.054;2022-09-25T08:19:37;10.33;;;8.70;;
8952;SDS011;4511;50.890;8.054;2022-09-25T08:22:05;14.67;;;7.70;;
8952;SDS011;4511;50.890;8.054;2022-09-25T08:24:32;11.60;;;8.47;;
8952;SDS011;4511;50.890;8.054;2022-09-25T08:26:58;9.57;;;7.50;;
8952;SDS011;4511;50.890;8.054;2022-09-25T08:29:25;10.43;;;7.43;;
8952;SDS011;4511;50.890;8.054;2022-09-25T08:31:52;9.60;;;7.17;;
8952;SDS011;4511;50.890;8.054;2022-09-25T08:34:18;11.33;;;7.03;;
8952;SDS011;4511;50.890;8.054;2022-09-25T08:36:46;9.13;;;6.53;;
8952;SDS011;4511;50.890;8.054;2022-09-25T08:39:15;9.13;;;7.63;;
8952;SDS011;4511;50.890;8.054;2022-09-25T08:41:43;11.27;;;5.87;;
8952;SDS011;4511;50.890;8.054;2022-09-25T08:44:17;8.83;;;6.50;;
8952;SDS011;4511;50.890;8.054;2022-09-25T08:46:48;8.77;;;5.47;;
8952;SDS011;4511;50.890;8.054;2022-09-25T08:49:37;7.97;;;5.97;;
8952;SDS011;4511;50.890;8.054;2022-09-25T08:52:07;11.50;;;5.27;;
8952;SDS011;4511;50.890;8.054;2022-09-25T08:54:43;7.73;;;4.80;;
8952;SDS011;4511;50.890;8.054;2022-09-25T08:57:16;6.03;;;4.50;;
8952;SDS011;4511;50.890;8.054;2022-09-25T08:59:52;7.17;;;4.37;;
8952;SDS011;4511;50.890;8.054;2022-09-25T09:02:21;10.10;;;4.67;;
8952;SDS011;4511;50.890;8.054;2022-09-25T09:05:02;7.30;;;4.43;;
8952;SDS011;4511;50.890;8.054;2022-09-25T09:07:33;10.27;;;5.00;;
8952;SDS011;4511;50.890;8.054;2022-09-25T09:10:05;8.30;;;4.27;;
8952;SDS011;4511;50.890;8.054;2022-09-25T09:12:41;28.63;;;23.27;;
8952;SDS011;4511;50.890;8.054;2022-09-25T09:15:15;12.10;;;4.70;;
8952;SDS011;4511;50.890;8.054;2022-09-25T09:17:47;8.50;;;3.60;;
8952;SDS011;4511;50.890;8.054;2022-09-25T09:20:15;7.13;;;3.67;;
8952;SDS011;4511;50.890;8.054;2022-09-25T09:22:45;11.60;;;6.90;;
8952;SDS011;4511;50.890;8.054;2022-09-25T09:25:18;12.63;;;7.37;;
8952;SDS011;4511;50.890;8.054;2022-09-25T09:28:06;5.37;;;3.83;;
8952;SDS011;4511;50.890;8.054;2022-09-25T09:30:47;6.87;;;4.00;;
8952;SDS011;4511;50.890;8.054;2022-09-25T09:33:24;5.70;;;3.30;;
8952;SDS011;4511;50.890;8.054;2022-09-25T09:36:01;7.13;;;3.87;;
8952;SDS011;4511;50.890;8.054;2022-09-25T09:38:35;8.93;;;4.03;;
8952;SDS011;4511;50.890;8.054;2022-09-25T09:41:14;7.67;;;3.70;;
8952;SDS011;4511;50.890;8.054;2022-09-25T09:44:00;7.73;;;3.83;;
8952;SDS011;4511;50.890;8.054;2022-09-25T09:46:38;11.53;;;4.00;;
8952;SDS011;4511;50.890;8.054;2022-09-25T09:49:11;5.00;;;4.07;;
8952;SDS011;4511;50.890;8.054;2022-09-25T09:51:44;6.50;;;4.20;;
8952;SDS011;4511;50.890;8.054;2022-09-25T09:54:16;14.30;;;4.80;;
8952;SDS011;4511;50.890;8.054;2022-09-25T09:56:51;7.80;;;4.13;;
8952;SDS011;4511;50.890;8.054;2022-09-25T09:59:21;8.17;;;4.33;;
8952;SDS011;4511;50.890;8.054;2022-09-25T10:01:54;8.20;;;4.40;;
8952;SDS011;4511;50.890;8.054;2022-09-25T10:04:27;9.20;;;5.03;;
8952;SDS011;4511;50.890;8.054;2022-09-25T10:06:57;8.33;;;4.27;;
8952;SDS011;4511;50.890;8.054;2022-09-25T10:09:28;7.90;;;4.43;;
8952;SDS011;4511;50.890;8.054;2022-09-25T10:11:58;6.57;;;4.47;;
8952;SDS011;4511;50.890;8.054;2022-09-25T10:14:30;8.73;;;4.03;;
8952;SDS011;4511;50.890;8.054;2022-09-25T10:16:58;7.57;;;3.87;;
8952;SDS011;4511;50.890;8.054;2022-09-25T10:19:27;10.33;;;4.67;;
8952;SDS011;4511;50.890;8.054;2022-09-25T10:21:57;5.80;;;3.80;;
8952;SDS011;4511;50.890;8.054;2022-09-25T10:27:21;7.67;;;3.90;;
8952;SDS011;4511;50.890;8.054;2022-09-25T10:32:50;5.80;;;3.43;;
8952;SDS011;4511;50.890;8.054;2022-09-25T10:35:26;5.57;;;3.43;;
8952;SDS011;4511;50.890;8.054;2022-09-25T10:38:05;6.27;;;3.30;;
8952;SDS011;4511;50.890;8.054;2022-09-25T10:40:43;8.20;;;3.13;;
8952;SDS011;4511;50.890;8.054;2022-09-25T10:43:22;5.47;;;2.70;;
8952;SDS011;4511;50.890;8.054;2022-09-25T10:45:49;9.87;;;3.10;;
8952;SDS011;4511;50.890;8.054;2022-09-25T10:48:30;6.47;;;2.50;;
8952;SDS011;4511;50.890;8.054;2022-09-25T10:51:15;5.17;;;2.50;;
8952;SDS011;4511;50.890;8.054;2022-09-25T10:53:44;6.83;;;2.77;;
8952;SDS011;4511;50.890;8.054;2022-09-25T10:56:13;3.90;;;2.43;;
8952;SDS011;4511;50.890;8.054;2022-09-25T10:58:44;8.03;;;2.20;;
8952;SDS011;4511;50.890;8.054;2022-09-25T11:01:14;3.73;;;2.47;;
8952;SDS011;4511;50.890;8.054;2022-09-25T11:03:46;7.70;;;2.50;;
8952;SDS011;4511;50.890;8.054;2022-09-25T11:06:17;7.07;;;2.70;;
8952;SDS011;4511;50.890;8.054;2022-09-25T11:08:48;6.53;;;2.57;;
8952;SDS011;4511;50.890;8.054;2022-09-25T11:11:23;6.93;;;2.23;;
8952;SDS011;4511;50.890;8.054;2022-09-25T11:13:53;5.77;;;2.60;;
8952;SDS011;4511;50.890;8.054;2022-09-25T11:16:22;3.60;;;2.40;;
8952;SDS011;4511;50.890;8.054;2022-09-25T11:19:10;5.37;;;2.10;;
8952;SDS011;4511;50.890;8.054;2022-09-25T11:21:39;5.97;;;2.57;;
8952;SDS011;4511;50.890;8.054;2022-09-25T11:24:13;6.77;;;2.17;;
8952;SDS011;4511;50.890;8.054;2022-09-25T11:26:47;6.03;;;2.33;;
8952;SDS011;4511;50.890;8.054;2022-09-25T11:29:21;7.93;;;2.40;;
8952;SDS011;4511;50.890;8.054;2022-09-25T11:31:55;3.80;;;2.33;;
8952;SDS011;4511;50.890;8.054;2022-09-25T11:34:33;5.30;;;2.07;;
8952;SDS011;4511;50.890;8.054;2022-09-25T11:37:11;4.87;;;1.87;;
8952;SDS011;4511;50.890;8.054;2022-09-25T11:39:45;4.77;;;2.00;;
8952;SDS011;4511;50.890;8.054;2022-09-25T11:42:32;7.57;;;2.17;;
8952;SDS011;4511;50.890;8.054;2022-09-25T11:45:06;6.57;;;2.10;;
8952;SDS011;4511;50.890;8.054;2022-09-25T11:47:42;5.03;;;2.30;;
8952;SDS011;4511;50.890;8.054;2022-09-25T11:50:13;4.03;;;2.00;;
8952;SDS011;4511;50.890;8.054;2022-09-25T11:52:44;6.47;;;2.13;;
8952;SDS011;4511;50.890;8.054;2022-09-25T11:55:34;6.23;;;2.30;;
8952;SDS011;4511;50.890;8.054;2022-09-25T11:58:35;4.73;;;2.10;;
8952;SDS011;4511;50.890;8.054;2022-09-25T12:01:15;5.00;;;2.23;;
8952;SDS011;4511;50.890;8.054;2022-09-25T12:03:59;5.77;;;2.40;;
8952;SDS011;4511;50.890;8.054;2022-09-25T12:06:50;4.50;;;2.17;;
8952;SDS011;4511;50.890;8.054;2022-09-25T12:09:35;7.97;;;2.20;;
8952;SDS011;4511;50.890;8.054;2022-09-25T12:12:14;5.50;;;2.30;;
8952;SDS011;4511;50.890;8.054;2022-09-25T12:14:50;4.97;;;2.40;;
8952;SDS011;4511;50.890;8.054;2022-09-25T12:17:29;6.07;;;2.57;;
8952;SDS011;4511;50.890;8.054;2022-09-25T12:20:08;6.77;;;2.13;;
8952;SDS011;4511;50.890;8.054;2022-09-25T12:22:44;5.37;;;2.20;;
8952;SDS011;4511;50.890;8.054;2022-09-25T12:25:26;5.67;;;2.27;;
8952;SDS011;4511;50.890;8.054;2022-09-25T12:28:09;2.57;;;2.07;;
8952;SDS011;4511;50.890;8.054;2022-09-25T12:30:44;6.80;;;2.70;;
8952;SDS011;4511;50.890;8.054;2022-09-25T12:33:22;6.97;;;2.33;;
8952;SDS011;4511;50.890;8.054;2022-09-25T12:35:57;9.23;;;2.70;;
8952;SDS011;4511;50.890;8.054;2022-09-25T12:38:34;6.37;;;2.67;;
8952;SDS011;4511;50.890;8.054;2022-09-25T12:41:08;6.73;;;2.30;;
8952;SDS011;4511;50.890;8.054;2022-09-25T12:43:43;5.33;;;3.00;;
8952;SDS011;4511;50.890;8.054;2022-09-25T12:46:15;5.83;;;2.30;;
8952;SDS011;4511;50.890;8.054;2022-09-25T12:48:55;5.60;;;2.00;;
8952;SDS011;4511;50.890;8.054;2022-09-25T12:51:27;4.40;;;1.83;;
8952;SDS011;4511;50.890;8.054;2022-09-25T12:54:00;5.00;;;1.90;;
8952;SDS011;4511;50.890;8.054;2022-09-25T12:56:32;5.80;;;2.30;;
8952;SDS011;4511;50.890;8.054;2022-09-25T12:59:09;4.93;;;1.87;;
8952;SDS011;4511;50.890;8.054;2022-09-25T13:01:42;4.53;;;2.03;;
8952;SDS011;4511;50.890;8.054;2022-09-25T13:04:18;4.97;;;2.20;;
8952;SDS011;4511;50.890;8.054;2022-09-25T13:07:05;5.73;;;1.90;;
8952;SDS011;4511;50.890;8.054;2022-09-25T13:09:38;4.33;;;1.90;;
8952;SDS011;4511;50.890;8.054;2022-09-25T13:12:09;4.27;;;2.03;;
8952;SDS011;4511;50.890;8.054;2022-09-25T13:14:45;4.10;;;2.10;;
8952;SDS011;4511;50.890;8.054;2022-09-25T13:17:16;4.63;;;1.90;;
8952;SDS011;4511;50.890;8.054;2022-09-25T13:19:44;4.17;;;1.97;;
8952;SDS011;4511;50.890;8.054;2022-09-25T13:22:12;3.73;;;1.90;;
8952;SDS011;4511;50.890;8.054;2022-09-25T13:24:44;5.13;;;2.00;;
8952;SDS011;4511;50.890;8.054;2022-09-25T13:27:16;5.10;;;1.90;;
8952;SDS011;4511;50.890;8.054;2022-09-25T13:29:50;7.97;;;2.00;;
8952;SDS011;4511;50.890;8.054;2022-09-25T13:32:20;4.60;;;1.97;;
8952;SDS011;4511;50.890;8.054;2022-09-25T13:34:53;5.07;;;2.20;;
8952;SDS011;4511;50.890;8.054;2022-09-25T13:37:23;7.93;;;2.00;;
8952;SDS011;4511;50.890;8.054;2022-09-25T13:39:52;5.60;;;1.60;;
8952;SDS011;4511;50.890;8.054;2022-09-25T13:42:37;3.27;;;1.70;;
8952;SDS011;4511;50.890;8.054;2022-09-25T13:48:00;4.37;;;2.10;;
8952;SDS011;4511;50.890;8.054;2022-09-25T13:50:31;4.80;;;2.00;;
8952;SDS011;4511;50.890;8.054;2022-09-25T14:01:49;3.03;;;1.77;;
8952;SDS011;4511;50.890;8.054;2022-09-25T14:04:26;4.87;;;2.03;;
8952;SDS011;4511;50.890;8.054;2022-09-25T14:07:02;3.20;;;1.63;;
8952;SDS011;4511;50.890;8.054;2022-09-25T14:09:40;3.90;;;1.60;;
8952;SDS011;4511;50.890;8.054;2022-09-25T14:12:12;4.00;;;1.67;;
8952;SDS011;4511;50.890;8.054;2022-09-25T14:14:45;3.37;;;1.70;;
8952;SDS011;4511;50.890;8.054;2022-09-25T14:17:17;4.77;;;2.10;;
8952;SDS011;4511;50.890;8.054;2022-09-25T14:19:46;3.57;;;2.00;;
8952;SDS011;4511;50.890;8.054;2022-09-25T14:22:18;3.73;;;1.90;;
8952;SDS011;4511;50.890;8.054;2022-09-25T14:24:52;5.07;;;1.67;;
8952;SDS011;4511;50.890;8.054;2022-09-25T14:27:21;6.03;;;2.07;;
8952;SDS011;4511;50.890;8.054;2022-09-25T14:29:52;3.60;;;1.83;;
8952;SDS011;4511;50.890;8.054;2022-09-25T14:32:34;4.70;;;2.10;;
8952;SDS011;4511;50.890;8.054;2022-09-25T14:35:15;3.07;;;1.90;;
8952;SDS011;4511;50.890;8.054;2022-09-25T14:37:58;6.67;;;2.00;;
8952;SDS011;4511;50.890;8.054;2022-09-25T14:40:39;4.10;;;2.20;;
8952;SDS011;4511;50.890;8.054;2022-09-25T14:43:20;3.43;;;1.90;;
8952;SDS011;4511;50.890;8.054;2022-09-25T14:46:04;2.97;;;2.00;;
8952;SDS011;4511;50.890;8.054;2022-09-25T14:48:34;3.17;;;1.60;;
8952;SDS011;4511;50.890;8.054;2022-09-25T14:51:06;4.20;;;1.70;;
8952;SDS011;4511;50.890;8.054;2022-09-25T14:53:37;3.83;;;1.83;;
8952;SDS011;4511;50.890;8.054;2022-09-25T14:56:07;3.40;;;1.90;;
8952;SDS011;4511;50.890;8.054;2022-09-25T14:58:36;4.60;;;1.80;;
8952;SDS011;4511;50.890;8.054;2022-09-25T15:01:09;2.57;;;1.60;;
8952;SDS011;4511;50.890;8.054;2022-09-25T15:03:44;4.83;;;1.60;;
8952;SDS011;4511;50.890;8.054;2022-09-25T15:06:21;3.87;;;1.50;;
8952;SDS011;4511;50.890;8.054;2022-09-25T15:08:51;4.80;;;1.80;;
8952;SDS011;4511;50.890;8.054;2022-09-25T15:11:19;3.07;;;2.20;;
8952;SDS011;4511;50.890;8.054;2022-09-25T15:13:46;4.37;;;1.90;;
8952;SDS011;4511;50.890;8.054;2022-09-25T15:16:14;2.87;;;1.70;;
8952;SDS011;4511;50.890;8.054;2022-09-25T15:19:02;3.20;;;1.70;;
8952;SDS011;4511;50.890;8.054;2022-09-25T15:21:35;4.60;;;1.90;;
8952;SDS011;4511;50.890;8.054;2022-09-25T15:24:09;2.83;;;1.77;;
8952;SDS011;4511;50.890;8.054;2022-09-25T15:26:40;2.27;;;1.80;;
8952;SDS011;4511;50.890;8.054;2022-09-25T15:29:12;4.20;;;1.70;;
8952;SDS011;4511;50.890;8.054;2022-09-25T15:31:42;2.13;;;1.50;;
8952;SDS011;4511;50.890;8.054;2022-09-25T15:34:14;2.93;;;2.43;;
8952;SDS011;4511;50.890;8.054;2022-09-25T15:36:45;3.30;;;2.57;;
8952;SDS011;4511;50.890;8.054;2022-09-25T15:39:16;5.17;;;3.50;;
8952;SDS011;4511;50.890;8.054;2022-09-25T15:41:47;6.53;;;3.10;;
8952;SDS011;4511;50.890;8.054;2022-09-25T15:44:16;3.47;;;2.63;;
8952;SDS011;4511;50.890;8.054;2022-09-25T15:46:45;5.97;;;3.23;;